Time;durP1;ratioP1;P1;durP2;ratioP2;P2;SDS_P1;SDS_P2;PMS_P1;PMS_P2;Temp;Humidity;BMP_temperature;BMP_pressure;BME280_temperature;BME280_humidity;BME280_pressure;Samples;Min_cycle;Max_cycle;Signal;HPM_P1;HPM_P2
2024/02/28 00:01:38;;;;;;;;;;;;;;;10.81;86.48;96446.43;106872;1294;22496;-88
2024/02/28 00:04:04;;;;;;;;;;;;;;;10.78;86.64;96450.57;106989;1300;22563;-88
2024/02/28 00:06:31;;;;;;;;;;;;;;;10.81;86.88;96444.72;106938;1300;22552;-88
2024/02/28 00:08:57;;;;;;;;;;;;;;;10.79;86.49;96445.74;106929;1300;25040;-88
2024/02/28 00:11:23;;;;;;;;;;;;;;;10.78;86.64;96445.37;106908;1295;22594;-87
2024/02/28 00:13:50;;;;;;;;;;;;;;;10.75;86.40;96443.34;107005;1294;23171;-87
2024/02/28 00:16:16;;;;;;;;;;;;;;;10.71;86.25;96445.50;106856;1295;22569;-88
2024/02/28 00:18:43;;;;;;;;;;;;;;;10.68;86.47;96445.58;106961;1294;22544;-88
2024/02/28 00:21:10;;;;;;;;;;;;;;;10.66;86.73;96446.28;107103;1292;22571;-87
2024/02/28 00:23:37;;;;;;;;;;;;;;;10.64;86.74;96442.39;106988;1300;22850;-87
2024/02/28 00:26:03;;;;;;;;;;;;;;;10.63;86.92;96443.96;107026;1292;22579;-88
2024/02/28 00:28:30;;;;;;;;;;;;;;;10.62;86.98;96440.40;107118;1292;22567;-88
2024/02/28 00:30:56;;;;;;;;;;;;;;;10.63;87.28;96442.14;106936;1291;23225;-88
2024/02/28 00:33:23;;;;;;;;;;;;;;;10.63;87.24;96440.13;107092;1295;22534;-88
2024/02/28 00:35:50;;;;;;;;;;;;;;;10.62;87.29;96437.11;106906;1288;22522;-88
2024/02/28 00:38:17;;;;;;;;;;;;;;;10.60;87.25;96437.27;106914;1285;22571;-87
2024/02/28 00:40:44;;;;;;;;;;;;;;;10.59;87.39;96437.26;106907;1291;22540;-88
2024/02/28 00:43:10;;;;;;;;;;;;;;;10.58;87.20;96436.39;106984;1287;22555;-88
2024/02/28 00:45:37;;;;;;;;;;;;;;;10.57;87.23;96434.80;107021;1295;22570;-88
2024/02/28 00:48:03;;;;;;;;;;;;;;;10.54;87.21;96432.64;107052;1300;22565;-87
2024/02/28 00:50:30;;;;;;;;;;;;;;;10.51;87.30;96436.06;107043;1300;22714;-87
2024/02/28 00:52:56;;;;;;;;;;;;;;;10.50;87.55;96430.97;107038;1291;22933;-87
2024/02/28 00:55:22;;;;;;;;;;;;;;;10.50;87.61;96430.73;106873;1300;22640;-87
2024/02/28 00:57:49;;;;;;;;;;;;;;;10.49;87.57;96428.91;106817;1292;22523;-87
2024/02/28 01:00:16;;;;;;;;;;;;;;;10.46;87.69;96426.12;106936;1299;24439;-88
2024/02/28 01:02:43;;;;;;;;;;;;;;;10.45;87.59;96427.50;106940;1301;22567;-87
2024/02/28 01:05:09;;;;;;;;;;;;;;;10.43;87.68;96423.02;106959;1294;22686;-88
2024/02/28 01:07:35;;;;;;;;;;;;;;;10.42;87.78;96422.64;106913;1300;22568;-88
2024/02/28 01:10:02;;;;;;;;;;;;;;;10.41;87.82;96422.27;107008;1294;22576;-87
2024/02/28 01:12:29;;;;;;;;;;;;;;;10.40;87.95;96423.94;106850;1292;22696;-87
2024/02/28 01:14:55;;;;;;;;;;;;;;;10.38;88.05;96419.64;107079;1300;22670;-83
2024/02/28 01:17:22;;;;;;;;;;;;;;;10.38;88.26;96419.88;107018;1300;23740;-84
2024/02/28 01:19:48;;;;;;;;;;;;;;;10.36;88.24;96419.05;107073;1292;22923;-84
2024/02/28 01:22:16;;;;;;;;;;;;;;;10.34;88.43;96417.48;108234;1300;22448;-84
2024/02/28 01:24:42;;;;;;;;;;;;;;;10.33;88.54;96417.18;107536;1290;24990;-84
2024/02/28 01:27:08;;;;;;;;;;;;;;;10.30;88.66;96417.42;106990;1300;22571;-84
2024/02/28 01:29:35;;;;;;;;;;;;;;;10.29;89.02;96418.62;106860;1300;25434;-84
2024/02/28 01:32:02;;;;;;;;;;;;;;;10.28;89.01;96421.32;106944;1294;22527;-84
2024/02/28 01:34:29;;;;;;;;;;;;;;;10.29;88.89;96420.45;106934;1288;22745;-84
2024/02/28 01:36:56;;;;;;;;;;;;;;;10.29;88.95;96420.73;106938;1291;22549;-84
2024/02/28 01:39:22;;;;;;;;;;;;;;;10.30;88.67;96417.55;107002;1299;24078;-84
2024/02/28 01:41:52;;;;;;;;;;;;;;;10.30;88.84;96420.10;106856;1282;23186;-84
2024/02/28 01:44:19;;;;;;;;;;;;;;;10.31;88.79;96419.31;107090;1294;22563;-83
2024/02/28 01:46:45;;;;;;;;;;;;;;;10.32;89.07;96419.54;107073;1300;22558;-83
2024/02/28 01:49:12;;;;;;;;;;;;;;;10.34;89.16;96417.92;107066;1300;25408;-83
2024/02/28 01:51:38;;;;;;;;;;;;;;;10.32;89.11;96413.81;106875;1295;23161;-84
2024/02/28 01:54:04;;;;;;;;;;;;;;;10.31;89.46;96412.81;106999;1300;22523;-83
2024/02/28 01:56:31;;;;;;;;;;;;;;;10.33;89.45;96413.80;106944;1279;22553;-84
2024/02/28 01:58:58;;;;;;;;;;;;;;;10.34;89.54;96409.70;107035;1300;22534;-84
2024/02/28 02:01:25;;;;;;;;;;;;;;;10.34;89.54;96410.73;107015;1295;22553;-84
2024/02/28 02:03:52;;;;;;;;;;;;;;;10.34;89.46;96408.73;106888;1297;22698;-84
2024/02/28 02:06:18;;;;;;;;;;;;;;;10.33;89.58;96407.60;107122;1294;22527;-84
2024/02/28 02:08:45;;;;;;;;;;;;;;;10.32;89.68;96404.91;107113;1300;22586;-84
2024/02/28 02:11:12;;;;;;;;;;;;;;;10.31;89.67;96401.30;107074;1294;22548;-84
2024/02/28 02:13:49;;;;;;;;;;;;;;;10.29;89.99;96400.80;106879;1299;22567;-84
2024/02/28 02:16:15;;;;;;;;;;;;;;;10.28;89.85;96399.26;108315;1299;23045;-88
2024/02/28 02:18:42;;;;;;;;;;;;;;;10.29;89.86;96399.23;108248;1294;23513;-87
2024/02/28 02:21:09;;;;;;;;;;;;;;;10.32;89.79;96398.95;108257;1295;22421;-88
2024/02/28 02:23:39;;;;;;;;;;;;;;;10.33;89.60;96394.73;108233;1300;22453;-87
2024/02/28 02:26:05;;;;;;;;;;;;;;;10.34;89.79;96394.50;107248;1300;22635;-87
2024/02/28 02:28:32;;;;;;;;;;;;;;;10.34;89.57;96395.91;107005;1301;22499;-87
2024/02/28 02:30:58;;;;;;;;;;;;;;;10.34;89.68;96400.02;107010;1295;22560;-87
2024/02/28 02:33:25;;;;;;;;;;;;;;;10.34;89.71;96402.17;106911;1301;22537;-88
2024/02/28 02:35:52;;;;;;;;;;;;;;;10.31;89.40;96406.94;106995;1292;22544;-87
2024/02/28 02:38:19;;;;;;;;;;;;;;;10.26;89.63;96406.63;106920;1284;25970;-88
2024/02/28 02:40:49;;;;;;;;;;;;;;;10.25;89.65;96408.40;107042;1295;25287;-88
2024/02/28 02:43:16;;;;;;;;;;;;;;;10.25;89.63;96408.53;106996;1300;22528;-88
2024/02/28 02:45:43;;;;;;;;;;;;;;;10.27;89.52;96408.20;106871;1300;22530;-88
2024/02/28 02:48:09;;;;;;;;;;;;;;;10.27;89.61;96408.13;106877;1301;22527;-87
2024/02/28 02:50:36;;;;;;;;;;;;;;;10.26;89.49;96408.68;107096;1292;22500;-87
2024/02/28 02:53:03;;;;;;;;;;;;;;;10.23;89.49;96411.82;106894;1297;22567;-88
2024/02/28 02:55:29;;;;;;;;;;;;;;;10.22;89.84;96410.23;107103;1293;24263;-88
2024/02/28 02:57:56;;;;;;;;;;;;;;;10.19;90.11;96412.36;106780;1300;22555;-88
2024/02/28 03:00:22;;;;;;;;;;;;;;;10.15;90.07;96410.67;106781;1300;22948;-87
2024/02/28 03:02:49;;;;;;;;;;;;;;;10.11;90.19;96412.51;107002;1298;24878;-87
2024/02/28 03:05:15;;;;;;;;;;;;;;;10.10;90.18;96408.05;106987;1300;22604;-87
2024/02/28 03:07:42;;;;;;;;;;;;;;;10.09;90.19;96410.08;106977;1300;22580;-88
2024/02/28 03:10:10;;;;;;;;;;;;;;;10.05;90.36;96410.27;107114;1294;22986;-87
2024/02/28 03:12:36;;;;;;;;;;;;;;;10.00;90.61;96411.05;106954;1299;22549;-88
2024/02/28 03:15:03;;;;;;;;;;;;;;;9.98;90.90;96410.07;107014;1300;22523;-87
2024/02/28 03:17:29;;;;;;;;;;;;;;;9.97;90.83;96407.81;106995;1300;22547;-87
2024/02/28 03:19:56;;;;;;;;;;;;;;;9.96;90.83;96405.20;107070;1295;22762;-88
2024/02/28 03:22:22;;;;;;;;;;;;;;;9.95;90.98;96404.79;106985;1300;22523;-87
2024/02/28 03:24:49;;;;;;;;;;;;;;;9.92;90.96;96405.70;106970;1300;24231;-87
2024/02/28 03:27:15;;;;;;;;;;;;;;;9.91;90.97;96404.52;106925;1301;22568;-88
2024/02/28 03:29:42;;;;;;;;;;;;;;;9.89;91.09;96405.00;106767;1297;24480;-87
2024/02/28 03:32:08;;;;;;;;;;;;;;;9.90;90.66;96405.61;107041;1298;22576;-88
2024/02/28 03:34:36;;;;;;;;;;;;;;;9.93;90.41;96408.79;106903;1295;22523;-87
2024/02/28 03:37:03;;;;;;;;;;;;;;;9.96;90.23;96405.48;106928;1301;22561;-88
2024/02/28 03:39:29;;;;;;;;;;;;;;;10.06;89.44;96409.63;107079;1300;22581;-88
2024/02/28 03:41:56;;;;;;;;;;;;;;;10.17;89.86;96412.89;107208;1300;22661;-88
2024/02/28 03:44:22;;;;;;;;;;;;;;;10.21;89.45;96411.40;106846;1300;23018;-87
2024/02/28 03:46:49;;;;;;;;;;;;;;;10.23;89.26;96410.84;107058;1298;24219;-88
2024/02/28 03:49:15;;;;;;;;;;;;;;;10.24;89.10;96411.37;106940;1298;22526;-84
2024/02/28 03:51:42;;;;;;;;;;;;;;;10.25;89.18;96410.45;106953;1301;22564;-84
2024/02/28 03:54:08;;;;;;;;;;;;;;;10.24;89.14;96411.72;107033;1295;22549;-84
2024/02/28 03:56:35;;;;;;;;;;;;;;;10.23;89.10;96412.04;106990;1301;22584;-84
2024/02/28 03:59:03;;;;;;;;;;;;;;;10.23;88.58;96414.08;107050;1295;22554;-84
2024/02/28 04:01:30;;;;;;;;;;;;;;;10.24;88.03;96409.98;106988;1300;22539;-84
2024/02/28 04:03:56;;;;;;;;;;;;;;;10.34;87.59;96413.04;107024;1291;22558;-84
2024/02/28 04:06:23;;;;;;;;;;;;;;;10.48;87.54;96412.79;107000;1300;22526;-84
2024/02/28 04:08:49;;;;;;;;;;;;;;;10.55;87.71;96417.79;106954;1300;24257;-84
2024/02/28 04:11:16;;;;;;;;;;;;;;;10.56;87.14;96420.64;107030;1298;22556;-84
2024/02/28 04:13:42;;;;;;;;;;;;;;;10.57;86.92;96423.30;106725;1301;22558;-84
2024/02/28 04:16:09;;;;;;;;;;;;;;;10.57;86.96;96423.26;106860;1301;22949;-84
2024/02/28 04:18:36;;;;;;;;;;;;;;;10.56;87.19;96428.31;106995;1295;22554;-84
2024/02/28 04:21:02;;;;;;;;;;;;;;;10.52;86.85;96426.63;106742;1296;22526;-87
2024/02/28 04:23:29;;;;;;;;;;;;;;;10.49;87.13;96433.63;106862;1295;23329;-88
2024/02/28 04:25:55;;;;;;;;;;;;;;;10.45;86.71;96438.77;107078;1292;22551;-87
2024/02/28 04:28:22;;;;;;;;;;;;;;;10.44;86.87;96442.36;106892;1298;25109;-88
2024/02/28 04:30:48;;;;;;;;;;;;;;;10.39;87.37;96445.84;106885;1300;22542;-88
2024/02/28 04:33:15;;;;;;;;;;;;;;;10.36;87.31;96445.52;106992;1300;22553;-88
2024/02/28 04:35:41;;;;;;;;;;;;;;;10.34;87.63;96447.36;106885;1300;24221;-88
2024/02/28 04:38:08;;;;;;;;;;;;;;;10.28;87.43;96445.24;107135;1300;22554;-88
2024/02/28 04:40:35;;;;;;;;;;;;;;;10.22;87.43;96447.46;106942;1301;22527;-87
2024/02/28 04:43:02;;;;;;;;;;;;;;;10.20;87.74;96447.45;106995;1298;22539;-87
2024/02/28 04:45:28;;;;;;;;;;;;;;;10.18;88.10;96448.10;107079;1298;23135;-88
2024/02/28 04:47:56;;;;;;;;;;;;;;;10.14;88.20;96452.84;107131;1300;23832;-88
2024/02/28 04:50:23;;;;;;;;;;;;;;;10.12;88.40;96452.45;107094;1292;22554;-87
2024/02/28 04:52:49;;;;;;;;;;;;;;;10.08;88.43;96455.02;107084;1297;22543;-87
2024/02/28 04:55:16;;;;;;;;;;;;;;;10.04;88.51;96457.15;107095;1298;22541;-87
2024/02/28 04:57:42;;;;;;;;;;;;;;;10.00;88.90;96459.46;106927;1295;22615;-87
2024/02/28 05:00:09;;;;;;;;;;;;;;;9.94;88.56;96459.89;106866;1300;22540;-88
2024/02/28 05:02:35;;;;;;;;;;;;;;;9.91;88.55;96458.66;106990;1300;22587;-88
2024/02/28 05:05:02;;;;;;;;;;;;;;;9.87;88.64;96460.12;107075;1299;25398;-88
2024/02/28 05:07:29;;;;;;;;;;;;;;;9.86;88.71;96459.63;107104;1292;24817;-88
2024/02/28 05:09:55;;;;;;;;;;;;;;;9.83;88.84;96458.86;107086;1300;24304;-88
2024/02/28 05:12:22;;;;;;;;;;;;;;;9.83;88.89;96461.98;107141;1300;24731;-88
2024/02/28 05:14:48;;;;;;;;;;;;;;;9.83;89.05;96460.55;107082;1300;22530;-88
2024/02/28 05:17:16;;;;;;;;;;;;;;;9.85;89.02;96460.05;107084;1288;22595;-87
2024/02/28 05:19:43;;;;;;;;;;;;;;;9.88;89.00;96457.61;107101;1295;25412;-88
2024/02/28 05:22:11;;;;;;;;;;;;;;;9.89;89.01;96456.55;107025;1300;22704;-88
2024/02/28 05:24:37;;;;;;;;;;;;;;;9.91;89.06;96458.14;106978;1300;22898;-85
2024/02/28 05:27:04;;;;;;;;;;;;;;;9.91;89.01;96462.38;106994;1301;22992;-85
2024/02/28 05:29:31;;;;;;;;;;;;;;;9.93;89.25;96465.86;106699;1300;22530;-85
2024/02/28 05:31:57;;;;;;;;;;;;;;;9.94;89.39;96470.11;106893;1300;22571;-84
2024/02/28 05:34:23;;;;;;;;;;;;;;;9.95;89.13;96471.84;107083;1300;23294;-85
2024/02/28 05:36:51;;;;;;;;;;;;;;;9.98;89.27;96473.98;106935;1298;24382;-85
2024/02/28 05:39:17;;;;;;;;;;;;;;;9.99;89.46;96478.52;106948;1300;23015;-85
2024/02/28 05:41:44;;;;;;;;;;;;;;;10.02;89.06;96480.40;107032;1295;23721;-84
2024/02/28 05:44:10;;;;;;;;;;;;;;;10.07;89.18;96485.19;106868;1300;22535;-84
2024/02/28 05:46:37;;;;;;;;;;;;;;;10.09;89.23;96487.89;107105;1300;22530;-85
2024/02/28 05:49:03;;;;;;;;;;;;;;;10.10;89.33;96489.73;106746;1300;23249;-84
2024/02/28 05:51:30;;;;;;;;;;;;;;;10.09;89.91;96494.31;107071;1300;22552;-85
2024/02/28 05:53:56;;;;;;;;;;;;;;;10.09;89.91;96495.35;107004;1295;25236;-85
2024/02/28 05:56:22;;;;;;;;;;;;;;;10.09;90.48;96502.63;107099;1300;22592;-85
2024/02/28 05:58:49;;;;;;;;;;;;;;;10.09;91.38;96498.23;106917;1300;24810;-84
2024/02/28 06:01:16;;;;;;;;;;;;;;;10.13;91.78;96496.65;107124;1298;22563;-84
2024/02/28 06:03:42;;;;;;;;;;;;;;;10.15;91.82;96502.42;106955;1292;22672;-84
2024/02/28 06:06:09;;;;;;;;;;;;;;;10.20;91.73;96502.59;106988;1300;25900;-85
2024/02/28 06:08:37;;;;;;;;;;;;;;;10.25;91.57;96500.65;106997;1300;22575;-84
2024/02/28 06:11:04;;;;;;;;;;;;;;;10.32;91.72;96502.15;106724;1300;22539;-85
2024/02/28 06:13:30;;;;;;;;;;;;;;;10.38;91.78;96501.77;106959;1300;22950;-85
2024/02/28 06:15:56;;;;;;;;;;;;;;;10.42;92.16;96506.11;106876;1301;22548;-84
2024/02/28 06:18:26;;;;;;;;;;;;;;;10.44;91.88;96500.55;106996;1300;22554;-85
2024/02/28 06:20:54;;;;;;;;;;;;;;;10.47;91.50;96506.62;106952;1293;25383;-85
2024/02/28 06:23:21;;;;;;;;;;;;;;;10.51;91.15;96507.31;107004;1300;22572;-85
2024/02/28 06:25:48;;;;;;;;;;;;;;;10.58;90.18;96506.46;107136;1297;22927;-85
2024/02/28 06:28:14;;;;;;;;;;;;;;;10.66;90.92;96511.48;106960;1291;22523;-84
2024/02/28 06:30:42;;;;;;;;;;;;;;;10.74;90.20;96509.28;106943;1298;25448;-85
2024/02/28 06:33:08;;;;;;;;;;;;;;;10.81;90.67;96514.14;106901;1294;22521;-85
2024/02/28 06:35:35;;;;;;;;;;;;;;;10.85;90.73;96514.05;106793;1300;22527;-85
2024/02/28 06:38:01;;;;;;;;;;;;;;;10.89;90.01;96512.27;107044;1300;22560;-85
2024/02/28 06:40:29;;;;;;;;;;;;;;;10.93;91.04;96509.83;106707;1301;22583;-84
2024/02/28 06:42:55;;;;;;;;;;;;;;;10.93;91.74;96515.09;106942;1300;22552;-84
2024/02/28 06:45:21;;;;;;;;;;;;;;;10.94;91.11;96514.27;106982;1300;22555;-85
2024/02/28 06:47:48;;;;;;;;;;;;;;;10.98;90.30;96516.20;106964;1300;22523;-85
2024/02/28 06:50:14;;;;;;;;;;;;;;;11.06;90.90;96514.58;106891;1292;22580;-84
2024/02/28 06:52:41;;;;;;;;;;;;;;;11.06;91.05;96513.84;107120;1300;22870;-85
2024/02/28 06:55:11;;;;;;;;;;;;;;;11.07;90.23;96516.65;107088;1300;22614;-85
2024/02/28 06:57:38;;;;;;;;;;;;;;;11.12;90.01;96519.37;107095;1300;23173;-84
2024/02/28 07:00:18;;;;;;;;;;;;;;;11.15;90.06;96522.20;106929;1298;22533;-84
2024/02/28 07:02:45;;;;;;;;;;;;;;;11.16;89.94;96525.30;106837;1298;25239;-84
2024/02/28 07:05:12;;;;;;;;;;;;;;;11.18;89.49;96526.32;107039;1300;25217;-84
2024/02/28 07:07:38;;;;;;;;;;;;;;;11.21;88.80;96525.60;106945;1286;22530;-84
2024/02/28 07:10:05;;;;;;;;;;;;;;;11.26;88.93;96526.59;107107;1300;24221;-84
2024/02/28 07:12:32;;;;;;;;;;;;;;;11.26;89.85;96532.23;106832;1301;22633;-84
2024/02/28 07:14:58;;;;;;;;;;;;;;;11.23;89.82;96526.91;107047;1300;22554;-84
2024/02/28 07:17:24;;;;;;;;;;;;;;;11.19;90.73;96530.49;106693;1300;24057;-84
2024/02/28 07:19:51;;;;;;;;;;;;;;;11.14;91.18;96533.20;106919;1300;22943;-83
2024/02/28 07:22:17;;;;;;;;;;;;;;;11.09;90.55;96538.66;106780;1293;24471;-84
2024/02/28 07:24:44;;;;;;;;;;;;;;;11.03;90.19;96542.90;107083;1300;22508;-84
2024/02/28 07:27:10;;;;;;;;;;;;;;;11.00;90.00;96542.82;107042;1301;22541;-84
2024/02/28 07:29:37;;;;;;;;;;;;;;;10.99;90.40;96546.23;106845;1293;25233;-84
2024/02/28 07:32:04;;;;;;;;;;;;;;;10.95;90.84;96549.48;106961;1300;23533;-84
2024/02/28 07:34:30;;;;;;;;;;;;;;;10.91;91.17;96552.43;107088;1300;22527;-84
2024/02/28 07:37:00;;;;;;;;;;;;;;;10.90;91.34;96550.08;106989;1301;22541;-84
2024/02/28 07:39:27;;;;;;;;;;;;;;;10.87;91.53;96545.95;107057;1297;22531;-84
2024/02/28 07:41:53;;;;;;;;;;;;;;;10.87;91.79;96546.67;107019;1300;22535;-84
2024/02/28 07:44:19;;;;;;;;;;;;;;;10.87;92.41;96545.39;107074;1300;22544;-84
2024/02/28 07:46:46;;;;;;;;;;;;;;;10.88;93.08;96548.40;106893;1292;25287;-84
2024/02/28 07:49:13;;;;;;;;;;;;;;;10.88;93.41;96553.52;106912;1300;22598;-84
2024/02/28 07:51:40;;;;;;;;;;;;;;;10.90;93.59;96551.92;106823;1293;22580;-84
2024/02/28 07:54:06;;;;;;;;;;;;;;;10.93;93.71;96549.02;106945;1296;25405;-84
2024/02/28 07:56:33;;;;;;;;;;;;;;;10.96;93.83;96550.17;106977;1296;22676;-84
2024/02/28 07:59:00;;;;;;;;;;;;;;;10.99;94.62;96551.77;107005;1295;24193;-84
2024/02/28 08:01:26;;;;;;;;;;;;;;;11.02;94.35;96551.27;106938;1298;24901;-84
2024/02/28 08:03:53;;;;;;;;;;;;;;;10.99;93.59;96553.89;106931;1301;22498;-84
2024/02/28 08:06:20;;;;;;;;;;;;;;;10.98;93.06;96561.11;106995;1301;22531;-84
2024/02/28 08:08:47;;;;;;;;;;;;;;;10.99;93.29;96559.95;106919;1300;22673;-84
2024/02/28 08:11:13;;;;;;;;;;;;;;;10.99;93.06;96559.01;106877;1301;22525;-86
2024/02/28 08:13:40;;;;;;;;;;;;;;;11.00;92.55;96561.46;107019;1291;22550;-84
2024/02/28 08:16:08;;;;;;;;;;;;;;;11.03;93.02;96565.09;107015;1301;23270;-84
2024/02/28 08:18:35;;;;;;;;;;;;;;;11.04;93.57;96565.35;106892;1300;22549;-84
2024/02/28 08:21:02;;;;;;;;;;;;;;;11.05;93.45;96568.03;107012;1295;22538;-84
2024/02/28 08:23:32;;;;;;;;;;;;;;;11.07;94.28;96569.85;106917;1300;22584;-84
2024/02/28 08:25:58;;;;;;;;;;;;;;;11.07;94.54;96569.02;106891;1300;22586;-84
2024/02/28 08:28:25;;;;;;;;;;;;;;;11.07;94.08;96570.09;107076;1300;22527;-88
2024/02/28 08:30:51;;;;;;;;;;;;;;;11.06;94.68;96573.08;106890;1296;22676;-87
2024/02/28 08:33:18;;;;;;;;;;;;;;;11.06;94.82;96574.35;106860;1301;22548;-87
2024/02/28 08:35:46;;;;;;;;;;;;;;;11.05;94.54;96579.47;106951;1300;23394;-88
2024/02/28 08:38:12;;;;;;;;;;;;;;;11.03;94.35;96575.21;106956;1300;22624;-88
2024/02/28 08:40:39;;;;;;;;;;;;;;;11.02;94.30;96577.60;107007;1300;22575;-88
2024/02/28 08:43:05;;;;;;;;;;;;;;;11.01;94.76;96584.27;107005;1300;22790;-88
2024/02/28 08:45:31;;;;;;;;;;;;;;;11.01;95.33;96584.83;107052;1299;22550;-87
2024/02/28 08:48:01;;;;;;;;;;;;;;;11.01;95.01;96586.15;106991;1300;22534;-88
2024/02/28 08:50:28;;;;;;;;;;;;;;;11.01;95.18;96582.86;107023;1300;24313;-87
2024/02/28 08:52:55;;;;;;;;;;;;;;;11.04;95.70;96587.74;107074;1292;23357;-88
2024/02/28 08:55:21;;;;;;;;;;;;;;;11.06;96.07;96590.30;107097;1300;23771;-87
2024/02/28 08:57:48;;;;;;;;;;;;;;;11.08;96.39;96591.63;107092;1301;22858;-88
2024/02/28 09:00:15;;;;;;;;;;;;;;;11.09;96.23;96589.92;106749;1292;23105;-88
2024/02/28 09:02:41;;;;;;;;;;;;;;;11.09;95.59;96587.28;107078;1296;22547;-88
2024/02/28 09:05:09;;;;;;;;;;;;;;;11.11;95.25;96592.10;106930;1299;22932;-88
2024/02/28 09:07:35;;;;;;;;;;;;;;;11.14;95.49;96587.25;106935;1298;22565;-87
2024/02/28 09:10:06;;;;;;;;;;;;;;;11.15;95.26;96589.38;107020;1300;22552;-88
2024/02/28 09:12:32;;;;;;;;;;;;;;;11.17;95.28;96588.20;107101;1300;22527;-88
2024/02/28 09:14:59;;;;;;;;;;;;;;;11.19;95.32;96585.83;106924;1294;22567;-88
2024/02/28 09:17:26;;;;;;;;;;;;;;;11.22;95.80;96589.80;107014;1301;23083;-88
2024/02/28 09:19:53;;;;;;;;;;;;;;;11.25;94.98;96590.77;106908;1300;163514;-88
2024/02/28 09:22:21;;;;;;;;;;;;;;;11.31;95.07;96587.52;107013;1301;22516;-87
2024/02/28 09:24:48;;;;;;;;;;;;;;;11.38;96.44;96588.80;106919;1298;25397;-88
2024/02/28 09:27:15;;;;;;;;;;;;;;;11.44;96.98;96590.48;107116;1291;22549;-88
2024/02/28 09:29:41;;;;;;;;;;;;;;;11.50;96.86;96587.05;106902;1300;22642;-88
2024/02/28 09:32:08;;;;;;;;;;;;;;;11.55;97.09;96591.13;107177;1300;22604;-88
2024/02/28 09:34:37;;;;;;;;;;;;;;;11.59;95.95;96594.55;106956;1299;22563;-88
2024/02/28 09:37:04;;;;;;;;;;;;;;;11.64;96.11;96600.39;107098;1300;22580;-88
2024/02/28 09:39:30;;;;;;;;;;;;;;;11.69;95.83;96604.49;107104;1295;22542;-88
2024/02/28 09:41:57;;;;;;;;;;;;;;;11.74;96.60;96612.70;106887;1296;22543;-88
2024/02/28 09:44:24;;;;;;;;;;;;;;;11.78;95.77;96610.58;106901;1300;22559;-88
2024/02/28 09:46:51;;;;;;;;;;;;;;;11.78;94.81;96613.66;107044;1300;22639;-88
2024/02/28 09:49:18;;;;;;;;;;;;;;;11.80;95.05;96615.19;107006;1300;23175;-88
2024/02/28 09:51:44;;;;;;;;;;;;;;;11.82;94.83;96611.35;107090;1296;24892;-88
2024/02/28 09:54:10;;;;;;;;;;;;;;;11.81;93.19;96612.27;106763;1301;22511;-87
2024/02/28 09:56:37;;;;;;;;;;;;;;;11.83;93.61;96617.98;106881;1300;22676;-87
2024/02/28 09:59:03;;;;;;;;;;;;;;;11.84;92.48;96622.11;106853;1301;23305;-88
2024/02/28 10:01:30;;;;;;;;;;;;;;;11.86;92.43;96623.98;106866;1300;22537;-87
2024/02/28 10:03:56;;;;;;;;;;;;;;;11.87;92.38;96623.55;107024;1301;22567;-87
2024/02/28 10:06:23;;;;;;;;;;;;;;;11.89;92.08;96627.67;106921;1284;22550;-87
2024/02/28 10:08:50;;;;;;;;;;;;;;;11.89;91.75;96627.33;106810;1301;22547;-87
2024/02/28 10:11:20;;;;;;;;;;;;;;;11.90;91.79;96622.48;107100;1299;22529;-87
2024/02/28 10:13:47;;;;;;;;;;;;;;;11.92;92.54;96626.52;106876;1300;22560;-87
2024/02/28 10:16:18;;;;;;;;;;;;;;;11.97;93.02;96622.48;107078;1292;22630;-86
2024/02/28 10:18:44;;;;;;;;;;;;;;;12.00;93.17;96624.83;107004;1300;23939;-88
2024/02/28 10:21:15;;;;;;;;;;;;;;;12.04;92.88;96627.75;106901;1300;24327;-87
2024/02/28 10:23:41;;;;;;;;;;;;;;;12.06;91.99;96629.65;107105;1296;22637;-87
2024/02/28 10:26:12;;;;;;;;;;;;;;;12.07;92.44;96630.39;106904;1300;25427;-87
2024/02/28 10:28:39;;;;;;;;;;;;;;;12.10;92.48;96630.70;107082;1294;22543;-87
2024/02/28 10:31:07;;;;;;;;;;;;;;;12.11;92.18;96630.55;107137;1297;23442;-88
2024/02/28 10:33:35;;;;;;;;;;;;;;;12.11;91.96;96628.83;106868;1301;22609;-87
2024/02/28 10:36:03;;;;;;;;;;;;;;;12.12;92.10;96637.17;106857;1298;22522;-87
2024/02/28 10:38:30;;;;;;;;;;;;;;;12.13;91.75;96643.86;107150;1292;22561;-88
2024/02/28 10:40:57;;;;;;;;;;;;;;;12.13;90.49;96643.30;106971;1300;22562;-87
2024/02/28 10:43:23;;;;;;;;;;;;;;;12.13;89.91;96645.75;107143;1300;22516;-87
2024/02/28 10:45:50;;;;;;;;;;;;;;;12.13;89.70;96647.71;106785;1300;22575;-87
2024/02/28 10:48:17;;;;;;;;;;;;;;;12.13;90.25;96651.64;107107;1300;23276;-87
2024/02/28 10:50:44;;;;;;;;;;;;;;;12.15;90.33;96646.73;107061;1300;22565;-87
2024/02/28 10:53:17;;;;;;;;;;;;;;;12.19;90.75;96648.30;107008;1295;22589;-87
2024/02/28 10:55:43;;;;;;;;;;;;;;;12.23;90.17;96646.30;106941;1291;22644;-87
2024/02/28 10:58:10;;;;;;;;;;;;;;;12.21;89.41;96644.97;107003;1294;24260;-87
2024/02/28 11:00:38;;;;;;;;;;;;;;;12.24;90.81;96644.23;106982;1292;25352;-88
2024/02/28 11:03:05;;;;;;;;;;;;;;;12.28;90.79;96646.95;106987;1300;22557;-87
2024/02/28 11:05:38;;;;;;;;;;;;;;;12.29;90.87;96649.13;106986;1298;23205;-87
2024/02/28 11:08:08;;;;;;;;;;;;;;;12.33;91.35;96647.64;106963;1295;22541;-88
2024/02/28 11:10:35;;;;;;;;;;;;;;;12.37;91.84;96644.27;108433;1298;22458;-88
2024/02/28 11:13:01;;;;;;;;;;;;;;;12.41;92.08;96649.16;108130;1294;22996;-89
2024/02/28 11:15:28;;;;;;;;;;;;;;;12.45;93.02;96645.70;108204;1295;23252;-88
2024/02/28 11:17:55;;;;;;;;;;;;;;;12.38;92.43;96645.52;108469;1294;22441;-88
2024/02/28 11:20:22;;;;;;;;;;;;;;;12.37;93.03;96646.04;108412;1289;22417;-88
2024/02/28 11:22:56;;;;;;;;;;;;;;;12.36;93.27;96647.15;106869;1300;23780;-87
2024/02/28 11:25:22;;;;;;;;;;;;;;;12.35;93.53;96645.40;106867;1298;22544;-87
2024/02/28 11:27:49;;;;;;;;;;;;;;;12.31;93.32;96648.05;107016;1300;23852;-87
2024/02/28 11:30:15;;;;;;;;;;;;;;;12.30;94.15;96643.88;106856;1297;23337;-87
2024/02/28 11:32:42;;;;;;;;;;;;;;;12.27;93.75;96648.35;107107;1295;22519;-88
2024/02/28 11:35:11;;;;;;;;;;;;;;;12.24;93.71;96649.28;106724;1297;22527;-87
2024/02/28 11:37:39;;;;;;;;;;;;;;;12.20;93.59;96655.91;107163;1300;23115;-88
2024/02/28 11:40:09;;;;;;;;;;;;;;;12.15;93.44;96658.88;107046;1300;22559;-88
2024/02/28 11:42:36;;;;;;;;;;;;;;;12.11;94.13;96660.60;107009;1300;23923;-88
2024/02/28 11:45:05;;;;;;;;;;;;;;;12.03;93.34;96658.88;107045;1300;22566;-88
2024/02/28 11:47:35;;;;;;;;;;;;;;;11.99;94.02;96654.02;107152;1300;25346;-87
2024/02/28 11:50:02;;;;;;;;;;;;;;;11.98;94.13;96652.52;107145;1295;22537;-87
2024/02/28 11:52:32;;;;;;;;;;;;;;;11.95;93.70;96655.86;106917;1295;24407;-88
2024/02/28 11:54:58;;;;;;;;;;;;;;;11.91;94.40;96655.86;106901;1301;23181;-87
2024/02/28 11:57:30;;;;;;;;;;;;;;;11.92;95.08;96659.08;107006;1293;24241;-87
2024/02/28 11:59:57;;;;;;;;;;;;;;;11.86;94.34;96658.23;106960;1300;23156;-87
2024/02/28 12:02:28;;;;;;;;;;;;;;;11.83;94.96;96662.52;106833;1298;22949;-87
2024/02/28 12:04:55;;;;;;;;;;;;;;;11.83;94.84;96655.04;107033;1294;22636;-88
2024/02/28 12:07:21;;;;;;;;;;;;;;;11.76;94.08;96654.66;106847;1295;22573;-87
2024/02/28 12:09:49;;;;;;;;;;;;;;;11.72;94.68;96654.26;106877;1300;23072;-87
2024/02/28 12:12:15;;;;;;;;;;;;;;;11.73;94.83;96660.42;106989;1300;23163;-88
2024/02/28 12:14:43;;;;;;;;;;;;;;;11.71;94.69;96659.30;107127;1288;22546;-88
2024/02/28 12:17:10;;;;;;;;;;;;;;;11.67;94.76;96658.46;106805;1294;22661;-87
2024/02/28 12:19:36;;;;;;;;;;;;;;;11.64;95.12;96659.75;106978;1295;22700;-87
2024/02/28 12:22:04;;;;;;;;;;;;;;;11.63;95.27;96661.55;106970;1300;23976;-88
2024/02/28 12:24:30;;;;;;;;;;;;;;;11.62;95.39;96663.24;107131;1300;24771;-88
2024/02/28 12:26:59;;;;;;;;;;;;;;;11.62;95.19;96669.52;107108;1295;23209;-87
2024/02/28 12:29:25;;;;;;;;;;;;;;;11.65;95.59;96669.52;107035;1295;22605;-88
2024/02/28 12:31:52;;;;;;;;;;;;;;;11.64;94.91;96668.14;107104;1295;22614;-88
2024/02/28 12:34:18;;;;;;;;;;;;;;;11.61;95.30;96672.05;107116;1299;23012;-87
2024/02/28 12:36:45;;;;;;;;;;;;;;;11.59;95.65;96669.87;106962;1300;22554;-88